createdAt,value
2017-10-10T00:02:35.012Z,13.03
2017-10-10T00:17:38.050Z,13.80
2017-10-10T00:32:33.832Z,11.90
2017-10-10T00:47:34.279Z,11.50
2017-10-10T01:02:34.245Z,13.10
2017-10-10T01:17:38.258Z,13.20
2017-10-10T01:32:35.631Z,11.77
2017-10-10T01:47:34.597Z,13.40
2017-10-10T02:02:35.100Z,16.93
2017-10-10T02:17:34.477Z,15.00
2017-10-10T02:32:37.222Z,13.37
2017-10-10T02:47:36.399Z,13.43
2017-10-10T03:02:34.794Z,10.50
2017-10-10T03:17:35.404Z,13.73
2017-10-10T03:32:34.496Z,10.73
2017-10-10T03:47:37.370Z,10.73
2017-10-10T04:02:35.338Z,12.30
2017-10-10T04:17:35.269Z,17.70
2017-10-10T04:32:34.753Z,14.90
2017-10-10T04:47:34.501Z,14.50
2017-10-10T05:02:33.606Z,25.93
2017-10-10T05:17:34.351Z,24.33
2017-10-10T05:32:35.677Z,27.97
2017-10-10T05:47:34.920Z,23.33
2017-10-10T06:32:36.335Z,22.90
2017-10-10T06:47:35.026Z,22.23
2017-10-10T07:02:36.052Z,22.43
2017-10-10T07:17:35.398Z,21.33
2017-10-10T07:32:37.697Z,26.17
2017-10-10T07:47:35.236Z,17.60
2017-10-10T08:02:36.199Z,13.53
2017-10-10T08:17:35.391Z,18.10
2017-10-10T08:32:34.995Z,17.20
2017-10-10T08:47:36.358Z,22.97
2017-10-10T09:02:34.374Z,23.23
2017-10-10T09:17:38.338Z,19.93
2017-10-10T09:32:35.204Z,20.63
2017-10-10T09:47:36.327Z,22.90
2017-10-10T10:02:34.632Z,20.97
2017-10-10T10:17:36.120Z,27.93
2017-10-10T10:32:35.132Z,22.43
2017-10-10T10:47:36.098Z,25.80
2017-10-10T11:02:36.288Z,17.90
2017-10-10T11:17:36.623Z,19.60
2017-10-10T11:32:38.655Z,15.30
2017-10-10T11:47:36.477Z,11.80
2017-10-10T12:02:36.506Z,10.43
2017-10-10T12:17:35.529Z,8.73
2017-10-10T12:32:37.904Z,4.80
2017-10-10T12:47:34.728Z,1.80
2017-10-10T13:02:42.789Z,1.77
2017-10-10T13:17:36.427Z,1.97
2017-10-10T13:32:34.693Z,2.20
2017-10-10T13:47:36.158Z,4.97
2017-10-10T14:02:34.811Z,2.43
2017-10-10T14:17:34.617Z,4.30
2017-10-10T14:32:37.991Z,2.17
2017-10-10T14:47:35.016Z,9.67
2017-10-10T15:02:35.190Z,7.97
2017-10-10T15:17:37.884Z,10.23
2017-10-10T15:32:35.604Z,9.27
2017-10-10T15:47:38.192Z,9.93
2017-10-10T16:02:35.205Z,21.17
2017-10-10T16:17:35.440Z,11.50
2017-10-10T16:32:34.553Z,14.57
2017-10-10T16:47:38.728Z,16.67
2017-10-10T17:32:39.794Z,11.70
2017-10-10T17:47:38.073Z,8.00
2017-10-10T18:17:46.260Z,7.50
2017-10-10T18:32:45.468Z,15.03
2017-10-10T21:17:41.997Z,14.17
2017-10-10T21:32:40.374Z,14.80
2017-10-10T21:47:38.262Z,13.30
2017-10-10T22:02:38.074Z,7.90
2017-10-10T22:17:39.954Z,13.13
2017-10-10T22:32:34.555Z,18.23
2017-10-10T22:47:42.228Z,12.87
2017-10-10T23:02:35.134Z,9.70
2017-10-10T23:17:35.168Z,7.27
2017-10-10T23:32:34.376Z,10.10
2017-10-10T23:47:36.515Z,13.20
